Latest Weather Observations for Bougainville Reef

IDQ60801

Issued at 9:32 pm EST Saturday 18 April 2015 (issued every 30 minutes, with the page automatically refreshed every 10 minutes)

About weather observations | Map of weather stations | Latest weather observations for QLD | Other Formats
Station Details ID: 200840 Name: BOUGAINVILLE REEF Lat: -15.49 Lon: 147.12 Height: 0.0 m
Data from the previous 72 hours. | See also: Recent months for locations in Queensland
Date/Time
EST
Temp
°C
App
Temp
°C
Dew
Point
Rel
Hum
%
Delta-T
°C
Wind Press
QNH
hPa
Press
MSL
hPa
Rain
since 9 am
mm
Dir
 
Spd
km/h
Gust
km/h
Spd
kts
Gust
kts
18/09:30pm 27.2 - - - - SE 39 44 21 24 1013.5 - -
18/09:00pm 26.9 - - - - SE 37 41 20 22 1013.5 1013.5 -
18/08:30pm 27.0 - - - - SE 39 44 21 24 1013.6 - -
18/08:00pm 26.5 - - - - SE 20 44 11 24 1013.1 1012.8 -
18/07:53pm 27.0 - - - - ESE 37 41 20 22 1012.9 - -
18/07:30pm 26.0 - - - - SE 17 20 9 11 1012.7 - -
18/07:00pm 25.4 - - - - ESE 13 17 7 9 1012.5 1012.3 -
18/06:30pm 25.1 - - - - ESE 15 17 8 9 1012.4 - -
18/06:00pm 25.1 - - - - E 24 33 13 18 1012.4 1012.2 -
18/05:30pm 24.6 - - - - ESE 13 17 7 9 1012.2 - -
18/05:00pm 24.4 - - - - E 24 35 13 19 1011.8 1011.7 -
18/04:30pm 23.5 - - - - ENE 24 30 13 16 1011.7 - -
18/04:00pm 23.8 - - - - NE 30 39 16 21 1011.3 1010.9 -
18/03:46pm 23.6 - - - - ENE 32 43 17 23 1011.1 - -
18/03:30pm 24.1 - - - - E 43 50 23 27 1011.0 - -
18/03:12pm 25.1 - - - - E 37 57 20 31 1010.6 - -
18/03:00pm 26.8 - - - - ESE 28 33 15 18 1010.9 1010.8 -
18/02:30pm 26.6 - - - - E 28 32 15 17 1010.8 - -
18/02:00pm 26.3 - - - - E 28 32 15 17 1010.9 1010.8 -
18/01:30pm 26.0 - - - - ESE 30 35 16 19 1011.2 - -
18/01:00pm 24.8 - - - - E 32 32 17 17 1011.9 1012.0 -
18/12:30pm 25.5 - - - - ESE 41 48 22 26 1012.3 - -
18/12:00pm 25.8 - - - - E 43 46 23 25 1012.5 1012.5 -
18/11:30am 26.2 - - - - E 46 56 25 30 1012.8 - -
18/11:00am 26.0 - - - - E 41 50 22 27 1012.7 1012.8 -
18/10:30am 25.9 - - - - E 48 54 26 29 1013.0 - -
18/10:00am 26.2 - - - - E 46 59 25 32 1013.6 1013.6 -
18/09:30am 26.4 - - - - E 48 56 26 30 1013.4 - -
18/09:00am 26.3 - - - - ESE 48 50 26 27 1013.0 1012.9 -
18/08:30am 26.2 - - - - ESE 44 50 24 27 1012.8 - -
18/08:00am 26.8 - - - - ESE 50 54 27 29 1012.5 1012.3 -
18/07:30am 26.8 - - - - ESE 43 52 23 28 1012.1 - -
18/07:00am 26.7 - - - - ESE 44 48 24 26 1011.6 1011.3 -
18/06:30am 26.3 - - - - ESE 43 50 23 27 1011.3 - -
18/06:00am 24.6 - - - - ESE 50 56 27 30 1011.1 1010.9 -
18/05:33am 24.8 - - - - ESE 59 69 32 37 1010.8 - -
18/05:31am 25.7 - - - - ESE 37 57 20 31 1010.9 - -
18/05:30am 25.8 - - - - ESE 35 43 19 23 1010.8 - -
18/05:00am 25.1 - - - - E 48 54 26 29 1010.5 1010.5 -
18/04:33am 25.6 - - - - ESE 46 67 25 36 1010.5 - -
18/04:30am 27.0 - - - - SE 44 52 24 28 1010.5 - -
18/04:00am 26.7 - - - - SE 43 54 23 29 1010.2 1010.1 -
18/03:30am 26.7 - - - - SE 39 44 21 24 1010.3 - -
18/03:00am 26.7 - - - - SE 43 46 23 25 1010.3 1010.2 -
18/02:30am 26.6 - - - - SE 41 46 22 25 1010.6 - -
18/02:00am 26.8 - - - - SE 39 46 21 25 1011.2 1011.2 -
18/01:30am 26.8 - - - - SE 37 44 20 24 1011.7 - -
18/01:00am 26.8 - - - - SE 43 52 23 28 1012.0 1011.9 -
18/12:30am 26.7 - - - - SE 43 50 23 27 1012.2 - -
18/12:00am 27.1 - - - - SE 44 52 24 28 1012.5 1012.5 -
 
Date/Time
EST
Temp
°C
App
Temp
°C
Dew
Point
Rel
Hum
%
Delta-T
°C
Wind Press
QNH
hPa
Press
MSL
hPa
Rain
since 9 am
mm
Dir
 
Spd
km/h
Gust
km/h
Spd
kts
Gust
kts
17/11:30pm 27.2 - - - - SE 46 54 25 29 1012.5 - -
17/11:00pm 27.0 - - - - SE 43 52 23 28 1012.7 1012.5 -
17/10:30pm 26.8 - - - - SE 46 54 25 29 1012.8 - -
17/10:00pm 26.6 - - - - SE 46 54 25 29 1013.0 1012.9 -
17/09:30pm 27.0 - - - - SE 48 56 26 30 1013.0 - -
17/09:00pm 26.9 - - - - SE 48 54 26 29 1012.7 1012.5 -
17/08:30pm 26.9 - - - - SE 44 56 24 30 1012.4 - -
17/08:00pm 27.1 - - - - SE 46 54 25 29 1012.2 1012.0 -
17/07:30pm 27.3 - - - - SE 46 54 25 29 1012.0 - -
17/07:00pm 27.0 - - - - SE 46 56 25 30 1011.9 1011.7 -
17/06:30pm 27.0 - - - - SE 44 52 24 28 1011.6 - -
17/06:00pm 27.0 - - - - SE 48 52 26 28 1011.4 1011.2 -
17/05:30pm 26.9 - - - - SE 46 54 25 29 1011.3 - -
17/05:00pm 27.1 - - - - SE 44 54 24 29 1011.1 1011.0 -
17/04:30pm 27.0 - - - - SE 46 54 25 29 1011.0 - -
17/04:00pm 26.9 - - - - SE 46 56 25 30 1010.9 1010.8 -
17/03:30pm 26.9 - - - - SE 46 54 25 29 1010.9 - -
17/03:00pm 26.9 - - - - SE 48 54 26 29 1011.0 1010.9 -
17/02:30pm 26.3 - - - - SE 44 54 24 29 1011.1 - -
17/02:24pm 25.6 - - - - ESE 37 54 20 29 1011.2 - -
17/02:00pm 25.4 - - - - SE 37 37 20 20 1011.7 1011.7 -
17/01:30pm 25.1 - - - - SE 39 46 21 25 1012.1 - -
17/01:00pm 25.4 - - - - SE 37 44 20 24 1012.5 1012.4 -
17/12:30pm 25.7 - - - - SE 39 44 21 24 1012.5 - -
17/12:00pm 24.9 - - - - SE 46 48 25 26 1013.0 1013.0 -
17/11:31am 25.7 - - - - SE 35 56 19 30 1013.5 - -
17/11:30am 26.6 - - - - SE 35 43 19 23 1013.6 - -
17/11:00am 26.4 - - - - SE 39 43 21 23 1014.2 1014.3 -
17/10:30am 26.5 - - - - ESE 37 46 20 25 1014.6 - -
17/10:00am 26.3 - - - - SE 43 46 23 25 1014.8 1014.8 -
17/09:30am 26.0 - - - - SE 43 48 23 26 1015.0 - -
17/09:00am 26.4 - - - - SE 41 48 22 26 1014.8 1014.7 -
17/08:30am 26.3 - - - - SE 39 48 21 26 1014.7 - -
17/08:00am 26.6 - - - - SE 41 48 22 26 1014.6 1014.4 -
17/07:30am 26.6 - - - - SE 39 44 21 24 1014.4 - -
17/07:00am 26.7 - - - - SE 37 48 20 26 1014.2 1014.0 -
17/06:30am 26.5 - - - - SE 41 48 22 26 1013.9 - -
17/06:00am 26.4 - - - - SE 43 46 23 25 1013.5 1013.3 -
17/05:30am 26.4 - - - - SE 43 48 23 26 1013.2 - -
17/05:00am 26.3 - - - - ESE 43 52 23 28 1012.8 1012.7 -
17/04:30am 26.6 - - - - ESE 48 54 26 29 1012.7 - -
17/04:00am 26.3 - - - - SE 44 52 24 28 1012.7 1012.7 -
17/03:30am 26.2 - - - - SE 44 54 24 29 1012.7 - -
17/03:00am 26.1 - - - - SE 48 57 26 31 1012.9 1012.7 -
17/02:30am 26.5 - - - - ESE 48 54 26 29 1012.9 - -
17/02:00am 26.5 - - - - SE 46 54 25 29 1013.3 1013.2 -
17/01:30am 26.6 - - - - SE 46 52 25 28 1013.7 - -
17/01:00am 26.7 - - - - SE 48 54 26 29 1014.1 1014.3 -
17/12:30am 26.5 - - - - SE 48 56 26 30 1014.7 - -
17/12:00am 26.6 - - - - SE 46 56 25 30 1015.3 1015.2 -
 
Date/Time
EST
Temp
°C
App
Temp
°C
Dew
Point
Rel
Hum
%
Delta-T
°C
Wind Press
QNH
hPa
Press
MSL
hPa
Rain
since 9 am
mm
Dir
 
Spd
km/h
Gust
km/h
Spd
kts
Gust
kts
16/11:30pm 26.1 - - - - ESE 44 50 24 27 1015.6 - -
16/11:00pm 26.3 - - - - ESE 44 50 24 27 1015.8 1015.8 -
16/10:30pm 26.4 - - - - ESE 48 54 26 29 1015.9 - -
16/10:00pm 26.5 - - - - ESE 46 56 25 30 1015.9 1015.8 -
16/09:30pm 26.8 - - - - SE 44 54 24 29 1015.9 - -
16/09:00pm 27.1 - - - - ESE 37 39 20 21 1016.0 1015.8 -
16/08:30pm 26.9 - - - - ESE 35 43 19 23 1015.7 - -
16/08:00pm 26.8 - - - - ESE 39 46 21 25 1015.5 1015.3 -
16/07:30pm 26.8 - - - - ESE 41 46 22 25 1015.1 - -
16/07:00pm 26.7 - - - - ESE 43 46 23 25 1014.8 1014.6 -
16/06:30pm 26.8 - - - - SE 41 46 22 25 1014.6 - -
16/06:00pm 26.7 - - - - SE 41 46 22 25 1014.4 1014.2 -
16/05:30pm 26.8 - - - - SE 41 48 22 26 1014.3 - -
16/05:00pm 26.8 - - - - SE 43 48 23 26 1014.1 1014.0 -
16/04:30pm 26.8 - - - - SE 43 50 23 27 1014.0 - -
16/04:00pm 26.7 - - - - SE 43 48 23 26 1013.9 1013.7 -
16/03:30pm 26.8 - - - - ESE 43 48 23 26 1013.8 - -
16/03:00pm 26.7 - - - - SE 44 52 24 28 1013.7 1013.6 -
16/02:30pm 26.7 - - - - SE 43 50 23 27 1013.8 - -
16/02:00pm 26.6 - - - - SE 41 52 22 28 1013.8 1013.9 -
16/01:30pm 26.7 - - - - SE 43 50 23 27 1014.2 - -
16/01:00pm 26.7 - - - - SE 41 46 22 25 1014.6 1014.7 -
16/12:30pm 26.7 - - - - SE 43 46 23 25 1015.1 - -
16/12:00pm 26.6 - - - - SE 43 48 23 26 1015.5 1015.5 -
16/11:30am 26.5 - - - - SE 37 48 20 26 1016.0 - -
16/11:00am 26.0 - - - - SE 46 56 25 30 1016.6 1016.6 -
16/10:30am 25.7 - - - - SE 46 54 25 29 1016.9 - -
16/10:08am 25.3 - - - - SE 39 57 21 31 1017.2 - -
16/10:00am 24.9 - - - - SE 44 52 24 28 1017.3 1017.1 -
16/09:30am 25.3 - - - - SE 52 61 28 33 1017.2 - -
16/09:00am 26.1 - - - - ESE 46 56 25 30 1017.2 1017.0 -
16/08:30am 26.3 - - - - SE 44 52 24 28 1016.9 - -
16/08:00am 26.0 - - - - SE 44 52 24 28 1016.6 1016.5 -
16/07:30am 25.6 - - - - SE 48 56 26 30 1016.3 - -
16/07:00am 25.7 - - - - SE 48 54 26 29 1016.1 1015.9 -
16/06:30am 25.1 - - - - SE 52 63 28 34 1015.8 - -
16/06:00am 25.9 - - - - ESE 44 50 24 27 1015.6 1015.5 -
16/05:30am 25.6 - - - - SE 48 56 26 30 1015.4 - -
16/05:00am 25.3 - - - - SE 50 57 27 31 1015.3 1015.1 -
16/04:30am 25.2 - - - - ESE 50 57 27 31 1015.1 - -
16/04:11am 25.2 - - - - ESE 43 61 23 33 1014.9 - -
16/04:00am 24.5 - - - - SE 50 50 27 27 1015.2 1015.2 -
16/03:36am 26.1 - - - - SE 37 69 20 37 1015.4 - -
16/03:30am 26.0 - - - - SE 41 48 22 26 1015.4 - -
16/03:00am 26.2 - - - - SE 44 50 24 27 1015.6 1015.5 -
16/02:30am 26.2 - - - - SE 43 50 23 27 1015.7 - -
16/02:00am 26.3 - - - - SE 44 48 24 26 1015.9 1015.8 -
16/01:30am 26.4 - - - - SE 50 56 27 30 1016.0 - -
16/01:00am 26.5 - - - - SE 44 52 24 28 1016.4 1016.5 -
16/12:30am 26.6 - - - - SE 48 57 26 31 1016.8 - -
16/12:00am 26.5 - - - - SE 46 52 25 28 1017.3 1017.4 -
 
Date/Time
EST
Temp
°C
App
Temp
°C
Dew
Point
Rel
Hum
%
Delta-T
°C
Wind Press
QNH
hPa
Press
MSL
hPa
Rain
since 9 am
mm
Dir
 
Spd
km/h
Gust
km/h
Spd
kts
Gust
kts
15/11:30pm 26.7 - - - - SE 46 54 25 29 1017.7 - -
15/11:00pm 26.5 - - - - SE 48 56 26 30 1017.8 1017.7 -
15/10:30pm 26.5 - - - - SE 46 54 25 29 1017.8 - -
15/10:00pm 26.7 - - - - SE 44 52 24 28 1017.7 1017.6 -

Other Formats:

Comma delimited format used in spreadsheet applications
http://www.bom.gov.au/fwo/IDQ60801/IDQ60801.95288.axf

JavaScript Object Notation format (JSON) in row-major order
http://www.bom.gov.au/fwo/IDQ60801/IDQ60801.95288.json